Time;durP1;ratioP1;P1;durP2;ratioP2;P2;SDS_P1;SDS_P2;PMS_P1;PMS_P2;Temp;Humidity;BMP_temperature;BMP_pressure;BME280_temperature;BME280_humidity;BME280_pressure;Samples;Min_cycle;Max_cycle;Signal;HPM_P1;HPM_P2
2021/03/02 00:00:31;;;;;;;;;;;22.30;49.10;;;;;;5079685;28;20259;-56
2021/03/02 00:02:59;;;;;;;;;;;22.40;49.20;;;;;;5072029;28;19912;-56
2021/03/02 00:05:25;;;;;;;;;;;22.40;49.20;;;;;;5091312;28;19911;-56
2021/03/02 00:07:51;;;;;;;;;;;22.30;49.20;;;;;;5091793;28;19961;-56
2021/03/02 00:10:17;;;;;;;;;;;22.40;49.30;;;;;;5092126;28;19915;-56
2021/03/02 00:12:43;;;;;;;;;;;22.30;49.20;;;;;;5088401;28;19912;-56
2021/03/02 00:15:10;;;;;;;;;;;22.30;49.30;;;;;;5088102;28;19908;-56
2021/03/02 00:17:42;;;;;;;;;;;22.30;49.30;;;;;;5079336;28;19912;-56
2021/03/02 00:20:09;;;;;;;;;;;22.30;49.30;;;;;;5082633;28;19951;-57
2021/03/02 00:22:41;;;;;;;;;;;22.30;49.30;;;;;;5077754;28;19962;-56
2021/03/02 00:25:08;;;;;;;;;;;22.30;49.40;;;;;;5085641;28;20357;-56
2021/03/02 00:27:34;;;;;;;;;;;22.30;49.40;;;;;;5075785;28;20342;-56
2021/03/02 00:30:01;;;;;;;;;;;22.30;49.40;;;;;;5084594;28;19908;-57
2021/03/02 00:32:27;;;;;;;;;;;22.30;49.40;;;;;;5081247;28;20038;-57
2021/03/02 00:34:52;;;;;;;;;;;22.30;49.50;;;;;;5081184;28;19954;-57
2021/03/02 00:37:18;;;;;;;;;;;22.30;49.40;;;;;;5084592;28;20273;-56
2021/03/02 00:39:44;;;;;;;;;;;22.30;49.40;;;;;;5074244;28;19998;-57
2021/03/02 00:42:10;;;;;;;;;;;22.30;49.50;;;;;;5089828;28;19912;-57
2021/03/02 00:44:36;;;;;;;;;;;22.20;49.40;;;;;;5084112;28;19916;-57
2021/03/02 00:47:02;;;;;;;;;;;22.30;49.50;;;;;;5075208;28;20374;-57
2021/03/02 00:49:28;;;;;;;;;;;22.30;49.60;;;;;;5074489;28;19915;-57
2021/03/02 00:51:54;;;;;;;;;;;22.30;49.50;;;;;;5077107;28;19908;-57
2021/03/02 00:54:20;;;;;;;;;;;22.20;49.50;;;;;;5095038;28;19915;-57
2021/03/02 00:56:46;;;;;;;;;;;22.30;49.60;;;;;;5077114;28;19956;-57
2021/03/02 00:59:14;;;;;;;;;;;22.20;49.60;;;;;;5110910;28;20458;-57
2021/03/02 01:01:41;;;;;;;;;;;22.30;50.20;;;;;;5064203;28;19912;-57
2021/03/02 01:04:06;;;;;;;;;;;22.20;49.60;;;;;;5086868;28;19928;-57
2021/03/02 01:06:34;;;;;;;;;;;22.20;49.60;;;;;;5057223;28;19947;-58
2021/03/02 01:09:00;;;;;;;;;;;22.20;49.60;;;;;;5087595;28;19952;-57
2021/03/02 01:11:26;;;;;;;;;;;22.20;49.60;;;;;;5056792;28;19904;-57
2021/03/02 01:13:52;;;;;;;;;;;22.20;49.60;;;;;;5083681;28;20254;-57
2021/03/02 01:16:18;;;;;;;;;;;22.20;49.60;;;;;;5088710;28;20077;-58
2021/03/02 01:18:44;;;;;;;;;;;22.20;49.70;;;;;;5083351;28;19911;-57
2021/03/02 01:21:11;;;;;;;;;;;22.20;49.70;;;;;;5093165;28;20263;-57
2021/03/02 01:23:37;;;;;;;;;;;22.20;49.70;;;;;;5088395;28;19937;-57
2021/03/02 01:26:03;;;;;;;;;;;22.20;49.70;;;;;;5080755;28;20003;-57
2021/03/02 01:28:29;;;;;;;;;;;22.20;49.70;;;;;;5084995;28;19912;-57
2021/03/02 01:30:54;;;;;;;;;;;22.20;49.70;;;;;;5080994;28;19912;-57
2021/03/02 01:33:20;;;;;;;;;;;22.20;49.70;;;;;;5083205;28;19999;-57
2021/03/02 01:35:46;;;;;;;;;;;22.20;49.70;;;;;;5087182;28;19912;-57
2021/03/02 01:38:12;;;;;;;;;;;22.20;49.80;;;;;;5088721;28;19908;-57
2021/03/02 01:40:38;;;;;;;;;;;22.20;49.70;;;;;;5077849;28;19908;-57
2021/03/02 01:43:03;;;;;;;;;;;22.20;49.80;;;;;;5083879;28;19909;-57
2021/03/02 01:45:29;;;;;;;;;;;22.20;49.80;;;;;;5082235;28;19912;-56
2021/03/02 01:47:55;;;;;;;;;;;22.10;49.80;;;;;;5081701;28;19908;-56
2021/03/02 01:50:22;;;;;;;;;;;22.20;49.80;;;;;;5078492;28;19915;-57
2021/03/02 01:52:47;;;;;;;;;;;22.20;49.90;;;;;;5090804;28;19954;-56
2021/03/02 01:55:15;;;;;;;;;;;22.20;49.90;;;;;;5090228;28;19948;-57
2021/03/02 01:57:41;;;;;;;;;;;22.10;49.90;;;;;;5078981;28;20003;-57
2021/03/02 02:00:14;;;;;;;;;;;22.10;49.90;;;;;;5091659;28;20358;-56
2021/03/02 02:02:47;;;;;;;;;;;22.20;49.90;;;;;;5094440;28;19912;-56
2021/03/02 02:05:14;;;;;;;;;;;22.10;49.80;;;;;;5081857;28;19920;-56
2021/03/02 02:07:47;;;;;;;;;;;22.10;49.90;;;;;;5087328;28;19914;-57
2021/03/02 02:10:18;;;;;;;;;;;22.10;49.90;;;;;;5082798;28;19919;-57
2021/03/02 02:12:49;;;;;;;;;;;22.10;49.90;;;;;;5086291;28;20365;-57
2021/03/02 02:15:17;;;;;;;;;;;22.10;49.90;;;;;;5078452;28;19931;-57
2021/03/02 02:17:43;;;;;;;;;;;22.10;49.90;;;;;;5088953;28;20002;-57
2021/03/02 02:20:11;;;;;;;;;;;22.10;50.00;;;;;;5087256;28;20403;-56
2021/03/02 02:22:37;;;;;;;;;;;22.10;50.00;;;;;;5067721;28;19926;-56
2021/03/02 02:25:22;;;;;;;;;;;22.10;50.00;;;;;;5061679;28;19908;-56
2021/03/02 02:27:50;;;;;;;;;;;22.10;50.00;;;;;;5091574;28;19908;-56
2021/03/02 02:30:16;;;;;;;;;;;22.10;50.00;;;;;;5093498;28;19908;-56
2021/03/02 02:32:42;;;;;;;;;;;22.10;50.00;;;;;;5089587;28;19994;-56
2021/03/02 02:35:10;;;;;;;;;;;22.10;50.10;;;;;;5072582;28;19915;-56
2021/03/02 02:37:37;;;;;;;;;;;22.10;50.10;;;;;;5073405;28;19917;-56
2021/03/02 02:40:03;;;;;;;;;;;22.00;50.10;;;;;;5077099;28;20440;-57
2021/03/02 02:42:30;;;;;;;;;;;22.00;50.00;;;;;;5079499;28;19904;-56
2021/03/02 02:44:56;;;;;;;;;;;22.00;50.00;;;;;;5085167;28;19908;-56
2021/03/02 02:47:23;;;;;;;;;;;22.00;50.10;;;;;;5090296;28;20531;-56
2021/03/02 02:49:49;;;;;;;;;;;22.00;50.10;;;;;;5074682;28;19916;-57
2021/03/02 02:52:15;;;;;;;;;;;22.00;50.10;;;;;;5083740;28;20300;-57
2021/03/02 02:54:42;;;;;;;;;;;22.00;50.10;;;;;;5080524;28;19926;-57
2021/03/02 02:57:08;;;;;;;;;;;22.00;50.10;;;;;;5085434;28;19908;-57
2021/03/02 02:59:36;;;;;;;;;;;22.00;50.20;;;;;;5084783;28;19954;-56
2021/03/02 03:02:03;;;;;;;;;;;22.00;50.20;;;;;;5082736;28;19912;-57
2021/03/02 03:04:35;;;;;;;;;;;22.00;50.20;;;;;;5061670;28;19917;-57
2021/03/02 03:07:03;;;;;;;;;;;22.00;50.30;;;;;;5075552;28;19916;-57
2021/03/02 03:09:30;;;;;;;;;;;22.00;50.20;;;;;;5085296;28;19930;-57
2021/03/02 03:12:05;;;;;;;;;;;22.00;50.30;;;;;;5082476;28;19994;-57
2021/03/02 03:14:33;;;;;;;;;;;22.00;50.30;;;;;;5079262;28;20320;-57
2021/03/02 03:16:59;;;;;;;;;;;22.00;50.30;;;;;;5076882;28;20247;-57
2021/03/02 03:19:25;;;;;;;;;;;22.00;50.30;;;;;;5082053;28;19908;-57
2021/03/02 03:21:52;;;;;;;;;;;21.90;50.30;;;;;;5092599;28;19918;-56
2021/03/02 03:24:18;;;;;;;;;;;22.00;50.40;;;;;;5089373;28;19908;-57
2021/03/02 03:26:44;;;;;;;;;;;21.90;50.30;;;;;;5091550;28;20253;-57
2021/03/02 03:29:10;;;;;;;;;;;21.90;50.30;;;;;;5074310;28;20010;-57
2021/03/02 03:31:36;;;;;;;;;;;21.90;50.30;;;;;;5092533;28;20002;-57
2021/03/02 03:34:02;;;;;;;;;;;22.00;50.40;;;;;;5086656;28;19912;-55
2021/03/02 03:36:29;;;;;;;;;;;22.00;50.40;;;;;;5082799;28;20274;-56
2021/03/02 03:38:55;;;;;;;;;;;21.90;50.40;;;;;;5072479;28;19931;-57
2021/03/02 03:41:21;;;;;;;;;;;21.90;50.40;;;;;;5070167;28;19908;-57
2021/03/02 03:43:46;;;;;;;;;;;21.90;50.40;;;;;;5092450;28;20421;-57
2021/03/02 03:46:12;;;;;;;;;;;21.90;50.40;;;;;;5091355;28;19954;-56
2021/03/02 03:48:38;;;;;;;;;;;21.90;50.40;;;;;;5089711;28;20255;-56
2021/03/02 03:51:04;;;;;;;;;;;21.90;50.40;;;;;;5080426;28;19904;-57
2021/03/02 03:53:32;;;;;;;;;;;21.90;50.50;;;;;;5080631;28;19912;-57
2021/03/02 03:55:58;;;;;;;;;;;21.90;50.50;;;;;;5075407;28;19916;-57
2021/03/02 03:58:25;;;;;;;;;;;21.90;50.50;;;;;;5079181;28;19908;-57
2021/03/02 04:00:52;;;;;;;;;;;21.90;50.50;;;;;;5088032;28;19907;-57
2021/03/02 04:03:23;;;;;;;;;;;21.90;50.50;;;;;;5091609;28;19962;-57
2021/03/02 04:05:49;;;;;;;;;;;21.80;50.50;;;;;;5104549;28;19908;-57
2021/03/02 04:08:15;;;;;;;;;;;21.80;50.60;;;;;;5074120;28;19908;-56
2021/03/02 04:10:41;;;;;;;;;;;21.80;50.60;;;;;;5082732;28;19908;-56
2021/03/02 04:13:11;;;;;;;;;;;21.80;50.60;;;;;;5071915;28;19916;-57
2021/03/02 04:15:37;;;;;;;;;;;21.80;50.60;;;;;;5076233;28;19908;-57
2021/03/02 04:18:08;;;;;;;;;;;21.80;50.70;;;;;;5088400;28;20337;-57
2021/03/02 04:20:34;;;;;;;;;;;21.80;50.60;;;;;;5091800;28;19912;-56
2021/03/02 04:23:00;;;;;;;;;;;21.80;50.60;;;;;;5091854;28;19977;-56
2021/03/02 04:25:25;;;;;;;;;;;21.80;50.70;;;;;;5091705;28;20356;-56
2021/03/02 04:27:51;;;;;;;;;;;21.80;50.70;;;;;;5091568;28;19995;-56
2021/03/02 04:30:17;;;;;;;;;;;21.70;50.70;;;;;;5091982;28;20377;-56
2021/03/02 04:32:43;;;;;;;;;;;21.80;50.70;;;;;;5089297;28;19975;-57
2021/03/02 04:35:09;;;;;;;;;;;21.70;50.70;;;;;;5086026;28;19927;-57
2021/03/02 04:37:36;;;;;;;;;;;21.70;50.70;;;;;;5090706;28;19908;-57
2021/03/02 04:40:03;;;;;;;;;;;21.70;50.70;;;;;;5083747;28;20350;-57
2021/03/02 04:42:28;;;;;;;;;;;21.70;50.70;;;;;;5080073;28;20426;-56
2021/03/02 04:44:54;;;;;;;;;;;21.70;50.80;;;;;;5082910;28;19908;-56
2021/03/02 04:47:20;;;;;;;;;;;21.70;50.80;;;;;;5091665;28;19912;-56
2021/03/02 04:49:46;;;;;;;;;;;21.70;50.80;;;;;;5091802;28;20110;-56
2021/03/02 04:52:12;;;;;;;;;;;21.70;50.80;;;;;;5078470;28;19908;-56
2021/03/02 04:54:38;;;;;;;;;;;21.70;50.80;;;;;;5071401;28;19916;-57
2021/03/02 04:57:03;;;;;;;;;;;21.70;50.80;;;;;;5054693;28;19909;-57
2021/03/02 04:59:29;;;;;;;;;;;21.70;50.90;;;;;;5075781;28;20410;-57
2021/03/02 05:01:55;;;;;;;;;;;21.70;50.80;;;;;;5086246;28;19948;-57
2021/03/02 05:04:21;;;;;;;;;;;21.70;50.80;;;;;;5075065;28;19917;-57
2021/03/02 05:06:47;;;;;;;;;;;21.70;50.80;;;;;;5076093;28;19912;-57
2021/03/02 05:09:13;;;;;;;;;;;21.70;50.90;;;;;;5087476;28;20329;-57
2021/03/02 05:11:38;;;;;;;;;;;21.70;50.90;;;;;;5092985;28;19904;-57
2021/03/02 05:14:04;;;;;;;;;;;21.60;50.80;;;;;;5085179;28;20046;-57
2021/03/02 05:16:30;;;;;;;;;;;21.60;50.80;;;;;;5081287;28;19909;-57
2021/03/02 05:18:56;;;;;;;;;;;21.60;50.90;;;;;;5081545;28;20396;-57
2021/03/02 05:21:22;;;;;;;;;;;21.60;50.90;;;;;;5083596;28;19908;-57
2021/03/02 05:23:47;;;;;;;;;;;21.60;51.00;;;;;;5086737;28;19916;-57
2021/03/02 05:26:13;;;;;;;;;;;21.60;50.90;;;;;;5064250;28;19916;-56
2021/03/02 05:28:39;;;;;;;;;;;21.60;51.00;;;;;;5094478;28;20609;-56
2021/03/02 05:31:05;;;;;;;;;;;21.60;50.90;;;;;;5067271;28;19926;-56
2021/03/02 05:33:31;;;;;;;;;;;21.60;51.00;;;;;;5092409;28;19959;-57
2021/03/02 05:35:56;;;;;;;;;;;21.60;51.00;;;;;;5080380;28;19981;-57
2021/03/02 05:38:22;;;;;;;;;;;21.60;51.00;;;;;;5068089;28;19914;-57
2021/03/02 05:40:48;;;;;;;;;;;21.60;51.00;;;;;;5087944;28;19908;-57
2021/03/02 05:43:14;;;;;;;;;;;21.60;51.10;;;;;;5068612;28;20304;-58
2021/03/02 05:45:43;;;;;;;;;;;21.60;51.10;;;;;;5094554;28;19908;-57
2021/03/02 05:48:09;;;;;;;;;;;21.60;51.10;;;;;;5076177;28;19911;-59
2021/03/02 05:50:35;;;;;;;;;;;21.50;51.10;;;;;;5079377;28;19908;-58
2021/03/02 05:53:01;;;;;;;;;;;21.60;51.10;;;;;;5094141;28;19914;-58
2021/03/02 05:55:28;;;;;;;;;;;21.50;51.10;;;;;;5086801;28;19985;-58
2021/03/02 05:57:55;;;;;;;;;;;21.60;51.10;;;;;;5073819;28;19954;-58
2021/03/02 06:00:21;;;;;;;;;;;21.50;51.10;;;;;;5075876;28;20320;-59
2021/03/02 06:02:46;;;;;;;;;;;21.50;51.10;;;;;;5085295;28;19920;-58
2021/03/02 06:05:13;;;;;;;;;;;21.60;51.20;;;;;;5073696;28;19970;-58
2021/03/02 06:07:39;;;;;;;;;;;21.50;51.20;;;;;;5089382;28;20281;-59
2021/03/02 06:10:05;;;;;;;;;;;21.50;51.10;;;;;;5093156;28;19908;-58
2021/03/02 06:12:48;;;;;;;;;;;21.50;51.20;;;;;;5086933;28;19908;-58
2021/03/02 06:15:14;;;;;;;;;;;21.50;51.20;;;;;;5083241;28;20328;-56
2021/03/02 06:17:40;;;;;;;;;;;21.50;51.20;;;;;;5083191;28;20254;-58
2021/03/02 06:20:06;;;;;;;;;;;21.50;51.20;;;;;;5069943;28;19909;-58
2021/03/02 06:22:35;;;;;;;;;;;21.50;51.20;;;;;;5062934;28;19931;-59
2021/03/02 06:25:02;;;;;;;;;;;21.50;51.30;;;;;;5084602;28;19908;-58
2021/03/02 06:27:30;;;;;;;;;;;21.50;51.30;;;;;;5087814;28;19912;-58
2021/03/02 06:30:06;;;;;;;;;;;21.50;51.30;;;;;;5082014;28;19911;-58
2021/03/02 06:32:36;;;;;;;;;;;21.50;51.40;;;;;;5087918;28;19940;-58
2021/03/02 06:35:02;;;;;;;;;;;21.40;51.30;;;;;;5073255;28;19912;-58
2021/03/02 06:37:38;;;;;;;;;;;21.50;51.30;;;;;;5083119;28;19911;-57
2021/03/02 06:40:04;;;;;;;;;;;21.40;51.30;;;;;;5088995;28;20287;-58
2021/03/02 06:42:35;;;;;;;;;;;21.40;51.30;;;;;;5067949;28;20018;-57
2021/03/02 06:45:13;;;;;;;;;;;21.40;51.30;;;;;;5079336;28;20003;-57
2021/03/02 06:47:40;;;;;;;;;;;21.40;51.30;;;;;;5080168;28;19914;-58
2021/03/02 06:50:12;;;;;;;;;;;21.40;51.30;;;;;;5086058;28;19908;-57
2021/03/02 06:52:41;;;;;;;;;;;21.40;51.30;;;;;;5089048;28;19913;-56
2021/03/02 06:55:28;;;;;;;;;;;21.40;51.20;;;;;;5088816;28;19916;-58
2021/03/02 06:58:12;;;;;;;;;;;21.40;51.30;;;;;;5090413;28;19940;-58
2021/03/02 07:00:38;;;;;;;;;;;21.40;51.30;;;;;;5091842;28;19938;-57
2021/03/02 07:03:04;;;;;;;;;;;21.40;51.30;;;;;;5089104;28;19912;-58
2021/03/02 07:05:30;;;;;;;;;;;21.40;51.20;;;;;;5084357;28;19955;-57
2021/03/02 07:07:56;;;;;;;;;;;21.40;51.20;;;;;;5085086;28;19919;-57
2021/03/02 07:10:23;;;;;;;;;;;21.30;51.20;;;;;;5075728;28;19909;-58
2021/03/02 07:12:51;;;;;;;;;;;21.30;51.20;;;;;;5083806;28;19908;-57
2021/03/02 07:15:17;;;;;;;;;;;21.30;51.20;;;;;;5080109;28;19912;-57
2021/03/02 07:17:44;;;;;;;;;;;21.30;51.20;;;;;;5092642;28;19908;-57
2021/03/02 07:20:11;;;;;;;;;;;21.30;51.20;;;;;;5092400;28;19922;-57
2021/03/02 07:22:42;;;;;;;;;;;21.30;51.20;;;;;;5092645;28;19912;-57
2021/03/02 07:25:10;;;;;;;;;;;21.30;51.20;;;;;;5092179;28;19947;-56
2021/03/02 07:27:39;;;;;;;;;;;21.20;51.20;;;;;;5092358;28;19988;-57
2021/03/02 07:30:05;;;;;;;;;;;21.20;51.10;;;;;;5092894;28;20475;-57
2021/03/02 07:32:31;;;;;;;;;;;21.20;51.10;;;;;;5092486;28;19907;-57
2021/03/02 07:34:58;;;;;;;;;;;21.20;51.10;;;;;;5074667;28;19923;-54
2021/03/02 07:37:24;;;;;;;;;;;21.20;51.10;;;;;;5092821;28;19995;-57
2021/03/02 07:40:04;;;;;;;;;;;21.20;51.10;;;;;;5074289;28;19991;-57
2021/03/02 07:42:31;;;;;;;;;;;21.10;51.00;;;;;;5092236;28;19912;-57
2021/03/02 07:45:16;;;;;;;;;;;21.10;51.00;;;;;;5074324;28;19912;-56
2021/03/02 07:47:43;;;;;;;;;;;21.10;51.00;;;;;;5091751;28;20251;-57
2021/03/02 07:50:21;;;;;;;;;;;21.10;51.00;;;;;;5091869;28;19950;-57
2021/03/02 07:52:47;;;;;;;;;;;21.00;51.00;;;;;;5090682;28;20242;-56
2021/03/02 07:55:23;;;;;;;;;;;21.00;51.00;;;;;;5091880;28;19904;-56
2021/03/02 07:58:09;;;;;;;;;;;20.90;51.00;;;;;;5092056;28;19944;-57
2021/03/02 08:00:35;;;;;;;;;;;20.90;51.10;;;;;;5091995;28;19947;-57
2021/03/02 08:03:16;;;;;;;;;;;20.90;51.10;;;;;;5091564;28;19955;-57
2021/03/02 08:05:42;;;;;;;;;;;20.90;51.20;;;;;;5091501;28;19939;-58
2021/03/02 08:08:23;;;;;;;;;;;20.80;51.20;;;;;;5091584;28;19947;-56
2021/03/02 08:10:59;;;;;;;;;;;20.80;51.30;;;;;;5091492;28;19908;-56
2021/03/02 08:13:51;;;;;;;;;;;20.80;51.40;;;;;;5091560;28;20011;-57
2021/03/02 08:16:37;;;;;;;;;;;20.80;51.50;;;;;;5087889;28;19927;-57
2021/03/02 08:19:22;;;;;;;;;;;20.80;51.60;;;;;;5091596;28;19908;-56
2021/03/02 08:21:48;;;;;;;;;;;20.80;51.60;;;;;;5091071;28;19942;-57
2021/03/02 08:24:14;;;;;;;;;;;20.80;51.70;;;;;;5091866;28;19904;-57
2021/03/02 08:26:43;;;;;;;;;;;20.80;51.70;;;;;;5091779;28;19915;-56
2021/03/02 08:29:16;;;;;;;;;;;20.80;51.80;;;;;;5091739;28;19915;-56
2021/03/02 08:31:43;;;;;;;;;;;20.80;51.80;;;;;;5074105;28;20319;-56
2021/03/02 08:34:11;;;;;;;;;;;20.90;51.80;;;;;;5095828;28;19915;-56
2021/03/02 08:36:37;;;;;;;;;;;20.90;51.80;;;;;;5095622;28;19915;-56
2021/03/02 08:39:13;;;;;;;;;;;20.90;52.40;;;;;;5095157;28;19915;-56
2021/03/02 08:41:40;;;;;;;;;;;21.00;51.80;;;;;;5094776;28;19953;-57
2021/03/02 08:44:06;;;;;;;;;;;21.00;51.80;;;;;;5095134;28;19914;-55
2021/03/02 08:46:33;;;;;;;;;;;21.00;51.70;;;;;;5090037;28;19915;-56
2021/03/02 08:49:09;;;;;;;;;;;21.10;51.60;;;;;;5095005;28;20018;-56
2021/03/02 08:51:35;;;;;;;;;;;21.10;51.50;;;;;;5056466;28;19996;-55
2021/03/02 08:54:01;;;;;;;;;;;21.10;51.40;;;;;;5091974;28;19915;-56
2021/03/02 08:56:27;;;;;;;;;;;21.20;51.40;;;;;;5094982;28;19935;-57
2021/03/02 08:58:54;;;;;;;;;;;21.20;51.30;;;;;;5094700;28;19926;-56
2021/03/02 09:01:23;;;;;;;;;;;21.20;51.30;;;;;;5094404;28;19912;-56
2021/03/02 09:03:50;;;;;;;;;;;21.20;51.20;;;;;;5094627;28;19915;-57
2021/03/02 09:06:16;;;;;;;;;;;21.30;51.20;;;;;;5094742;28;20335;-56
2021/03/02 09:08:56;;;;;;;;;;;21.30;51.20;;;;;;5094425;28;19908;-64
2021/03/02 09:11:24;;;;;;;;;;;21.30;51.10;;;;;;5096043;28;19957;-62
2021/03/02 09:13:50;;;;;;;;;;;21.40;51.10;;;;;;5095644;28;19912;-62
2021/03/02 09:16:28;;;;;;;;;;;21.40;51.00;;;;;;5095422;28;19904;-53
2021/03/02 09:18:58;;;;;;;;;;;21.50;51.00;;;;;;5095282;28;19958;-53
2021/03/02 09:21:24;;;;;;;;;;;21.50;50.90;;;;;;5095159;28;20004;-52
2021/03/02 09:23:50;;;;;;;;;;;21.60;50.80;;;;;;5095019;28;20345;-53
2021/03/02 09:26:20;;;;;;;;;;;21.60;50.70;;;;;;5094907;28;19908;-53
2021/03/02 09:28:50;;;;;;;;;;;21.60;50.60;;;;;;5095760;28;19912;-60
2021/03/02 09:31:16;;;;;;;;;;;21.70;50.70;;;;;;5077262;28;19912;-56
2021/03/02 09:33:42;;;;;;;;;;;21.80;50.90;;;;;;5077482;28;19918;-53
2021/03/02 09:36:08;;;;;;;;;;;21.80;50.90;;;;;;5095245;28;19904;-53
2021/03/02 09:38:34;;;;;;;;;;;21.80;50.90;;;;;;5095241;28;19977;-53
2021/03/02 09:41:00;;;;;;;;;;;21.90;51.00;;;;;;5095014;28;19912;-54
2021/03/02 09:43:36;;;;;;;;;;;22.10;51.10;;;;;;5075472;28;19908;-54
2021/03/02 09:46:02;;;;;;;;;;;22.20;51.10;;;;;;5094499;28;19915;-55
2021/03/02 09:48:41;;;;;;;;;;;22.30;51.00;;;;;;5094903;28;19904;-56
2021/03/02 09:51:26;;;;;;;;;;;22.50;51.10;;;;;;5095274;28;20373;-56
2021/03/02 09:53:52;;;;;;;;;;;22.70;51.10;;;;;;5094600;28;19961;-55
2021/03/02 09:56:19;;;;;;;;;;;22.90;51.00;;;;;;5095017;28;19998;-54
2021/03/02 09:58:48;;;;;;;;;;;23.10;50.80;;;;;;5094844;28;19915;-57
2021/03/02 10:01:25;;;;;;;;;;;23.30;50.50;;;;;;5095580;28;19915;-55
2021/03/02 10:03:52;;;;;;;;;;;23.50;50.30;;;;;;5094640;28;20353;-55
2021/03/02 10:06:24;;;;;;;;;;;23.80;50.30;;;;;;5076494;28;19908;-53
2021/03/02 10:08:51;;;;;;;;;;;24.10;50.30;;;;;;5094765;28;19908;-55
2021/03/02 10:11:16;;;;;;;;;;;24.40;50.10;;;;;;5094446;28;19904;-55
2021/03/02 10:13:45;;;;;;;;;;;24.70;49.80;;;;;;5093868;28;19912;-54
2021/03/02 10:16:17;;;;;;;;;;;25.00;49.30;;;;;;5094119;28;20285;-54
2021/03/02 10:18:46;;;;;;;;;;;25.30;49.20;;;;;;5091368;28;19954;-53
2021/03/02 10:21:12;;;;;;;;;;;25.70;48.70;;;;;;5094134;28;20045;-59
2021/03/02 10:23:42;;;;;;;;;;;26.10;47.90;;;;;;5075280;28;20359;-50
2021/03/02 10:26:08;;;;;;;;;;;26.20;46.80;;;;;;5091859;28;19922;-51
2021/03/02 10:28:34;;;;;;;;;;;26.30;46.10;;;;;;5065933;28;20262;-54
2021/03/02 10:31:00;;;;;;;;;;;26.30;45.50;;;;;;5081709;28;19955;-52
2021/03/02 10:33:26;;;;;;;;;;;26.30;45.10;;;;;;5083677;28;19915;-51
2021/03/02 10:35:53;;;;;;;;;;;26.20;45.50;;;;;;5082127;28;19915;-52
2021/03/02 10:38:19;;;;;;;;;;;26.10;44.80;;;;;;5084991;28;19904;-50
2021/03/02 10:40:45;;;;;;;;;;;26.00;44.70;;;;;;5089795;28;19914;-53
2021/03/02 10:43:11;;;;;;;;;;;25.90;44.60;;;;;;5093399;28;19908;-53
2021/03/02 10:45:37;;;;;;;;;;;25.80;44.50;;;;;;5093645;28;20010;-53
2021/03/02 10:48:03;;;;;;;;;;;25.70;44.40;;;;;;5093499;28;19910;-53
2021/03/02 10:50:29;;;;;;;;;;;25.60;44.60;;;;;;5093327;28;20006;-53
2021/03/02 10:52:56;;;;;;;;;;;25.50;44.90;;;;;;5093220;28;19912;-53
2021/03/02 10:55:22;;;;;;;;;;;25.50;45.00;;;;;;5093159;28;19908;-52
2021/03/02 10:57:48;;;;;;;;;;;25.50;45.30;;;;;;5092862;28;19919;-51
2021/03/02 11:00:14;;;;;;;;;;;25.60;45.70;;;;;;5093682;28;19908;-49
2021/03/02 11:02:40;;;;;;;;;;;25.80;45.90;;;;;;5093344;28;19908;-51
2021/03/02 11:05:08;;;;;;;;;;;26.00;46.00;;;;;;5092999;28;20365;-52
2021/03/02 11:07:34;;;;;;;;;;;26.20;46.10;;;;;;5075010;28;19912;-54
2021/03/02 11:09:59;;;;;;;;;;;26.40;45.70;;;;;;5092301;28;20234;-51
2021/03/02 11:12:25;;;;;;;;;;;26.70;45.70;;;;;;5092381;28;20375;-55
2021/03/02 11:14:51;;;;;;;;;;;26.90;45.40;;;;;;5092206;28;19962;-54
2021/03/02 11:17:17;;;;;;;;;;;27.10;44.90;;;;;;5074757;28;19919;-54
2021/03/02 11:19:43;;;;;;;;;;;27.30;44.70;;;;;;5074891;28;20362;-54
2021/03/02 11:22:08;;;;;;;;;;;27.40;44.40;;;;;;5092858;28;20026;-54
2021/03/02 11:24:34;;;;;;;;;;;27.40;44.10;;;;;;5092819;28;19904;-54
2021/03/02 11:27:00;;;;;;;;;;;27.40;44.00;;;;;;5092649;28;19908;-54
2021/03/02 11:29:26;;;;;;;;;;;27.40;43.90;;;;;;5092485;28;19904;-55
2021/03/02 11:31:52;;;;;;;;;;;27.50;44.10;;;;;;5091263;28;19911;-52
2021/03/02 11:34:18;;;;;;;;;;;27.50;44.20;;;;;;5074293;28;20281;-51
2021/03/02 11:36:43;;;;;;;;;;;27.50;44.20;;;;;;5092518;28;19908;-50
2021/03/02 11:39:09;;;;;;;;;;;27.60;44.40;;;;;;5091943;28;19931;-50
2021/03/02 11:41:35;;;;;;;;;;;27.80;44.50;;;;;;5074285;28;20281;-51
2021/03/02 11:44:01;;;;;;;;;;;27.90;44.40;;;;;;5092196;28;19945;-55
2021/03/02 11:46:28;;;;;;;;;;;28.20;44.50;;;;;;5092388;28;19961;-54
2021/03/02 11:48:53;;;;;;;;;;;28.40;45.00;;;;;;5092385;28;19998;-54
2021/03/02 11:51:19;;;;;;;;;;;28.60;44.00;;;;;;5068681;28;19987;-54
2021/03/02 11:53:45;;;;;;;;;;;28.80;43.90;;;;;;5064589;28;19920;-54
2021/03/02 11:56:11;;;;;;;;;;;29.00;43.60;;;;;;5082936;28;19912;-53
2021/03/02 11:58:37;;;;;;;;;;;29.20;43.40;;;;;;5081208;28;19916;-53
2021/03/02 12:01:03;;;;;;;;;;;29.40;43.10;;;;;;5088164;28;19941;-53
2021/03/02 12:03:28;;;;;;;;;;;29.60;42.60;;;;;;5092067;28;19920;-55
2021/03/02 12:05:55;;;;;;;;;;;29.70;42.20;;;;;;5092333;28;20011;-54
2021/03/02 12:08:21;;;;;;;;;;;29.80;41.80;;;;;;5095276;28;19969;-54
2021/03/02 12:10:47;;;;;;;;;;;29.80;41.60;;;;;;5096107;28;20278;-54
2021/03/02 12:13:13;;;;;;;;;;;29.80;41.60;;;;;;5096533;28;20311;-54
2021/03/02 12:15:40;;;;;;;;;;;29.80;41.30;;;;;;5096413;28;19914;-54
2021/03/02 12:18:06;;;;;;;;;;;29.80;41.20;;;;;;5096433;28;19904;-55
2021/03/02 12:20:32;;;;;;;;;;;29.70;41.00;;;;;;5096382;28;20414;-54
2021/03/02 12:22:57;;;;;;;;;;;29.60;41.00;;;;;;5078367;28;19911;-54
2021/03/02 12:25:23;;;;;;;;;;;29.60;41.00;;;;;;5096005;28;19915;-54
2021/03/02 12:27:49;;;;;;;;;;;29.50;41.00;;;;;;5096102;28;20334;-54
2021/03/02 12:30:15;;;;;;;;;;;29.40;40.90;;;;;;5077738;28;19908;-54
2021/03/02 12:32:41;;;;;;;;;;;29.30;41.00;;;;;;5096146;28;19908;-54
2021/03/02 12:35:07;;;;;;;;;;;29.20;41.10;;;;;;5077643;28;19923;-54
2021/03/02 12:37:33;;;;;;;;;;;29.20;41.30;;;;;;5096125;28;20384;-54
2021/03/02 12:39:59;;;;;;;;;;;29.20;41.50;;;;;;5095866;28;20338;-54
2021/03/02 12:42:25;;;;;;;;;;;29.20;41.50;;;;;;5095931;28;19918;-54
2021/03/02 12:44:51;;;;;;;;;;;29.30;41.60;;;;;;5077822;28;19932;-54
2021/03/02 12:47:17;;;;;;;;;;;29.30;41.60;;;;;;5095887;28;19950;-53
2021/03/02 12:49:43;;;;;;;;;;;29.50;41.50;;;;;;5095639;28;19908;-55
2021/03/02 12:52:10;;;;;;;;;;;29.60;41.00;;;;;;5095591;28;19908;-53
2021/03/02 12:54:37;;;;;;;;;;;29.70;40.70;;;;;;5095498;28;20029;-55
2021/03/02 12:57:03;;;;;;;;;;;29.60;40.30;;;;;;5095669;28;19953;-54
2021/03/02 12:59:29;;;;;;;;;;;29.50;40.10;;;;;;5077050;28;19912;-55
2021/03/02 13:01:55;;;;;;;;;;;29.20;40.00;;;;;;5077566;28;19912;-56
2021/03/02 13:04:21;;;;;;;;;;;29.00;40.10;;;;;;5095622;28;19920;-54
2021/03/02 13:06:47;;;;;;;;;;;28.70;40.20;;;;;;5095460;28;19954;-55
2021/03/02 13:09:13;;;;;;;;;;;28.40;40.40;;;;;;5077268;28;19941;-55
2021/03/02 13:11:39;;;;;;;;;;;28.20;40.70;;;;;;5095396;28;19911;-54
2021/03/02 13:14:05;;;;;;;;;;;28.00;41.00;;;;;;5095365;28;19907;-54
2021/03/02 13:16:31;;;;;;;;;;;27.80;41.30;;;;;;5095553;28;19961;-55
2021/03/02 13:18:57;;;;;;;;;;;27.50;41.50;;;;;;5095067;28;19912;-56
2021/03/02 13:21:23;;;;;;;;;;;27.40;41.70;;;;;;5095188;28;19911;-55
2021/03/02 13:23:49;;;;;;;;;;;27.20;41.90;;;;;;5077236;28;20423;-56
2021/03/02 13:26:16;;;;;;;;;;;27.20;42.20;;;;;;5076723;28;20354;-54
2021/03/02 13:28:44;;;;;;;;;;;27.00;42.40;;;;;;5084897;28;19915;-54
2021/03/02 13:31:11;;;;;;;;;;;26.90;42.60;;;;;;5084987;28;19999;-54
2021/03/02 13:33:40;;;;;;;;;;;26.80;42.70;;;;;;5082826;28;19970;-55
2021/03/02 13:36:07;;;;;;;;;;;26.70;42.90;;;;;;5084073;28;19922;-53
2021/03/02 13:38:34;;;;;;;;;;;26.60;43.00;;;;;;5086480;28;20277;-56
2021/03/02 13:41:03;;;;;;;;;;;26.50;43.20;;;;;;5065496;28;19943;-54
2021/03/02 13:43:29;;;;;;;;;;;26.50;43.30;;;;;;5059160;28;20281;-56
2021/03/02 13:45:56;;;;;;;;;;;26.40;43.40;;;;;;5074199;28;19904;-56
2021/03/02 13:48:23;;;;;;;;;;;26.30;43.60;;;;;;5074313;28;19931;-59
2021/03/02 13:50:50;;;;;;;;;;;26.30;43.70;;;;;;5056254;28;20350;-56
2021/03/02 13:53:16;;;;;;;;;;;26.30;43.80;;;;;;5055635;28;19917;-57
2021/03/02 13:55:46;;;;;;;;;;;26.30;43.90;;;;;;5073748;28;20018;-57
2021/03/02 13:58:11;;;;;;;;;;;26.30;44.60;;;;;;5073940;28;19904;-56
2021/03/02 14:00:37;;;;;;;;;;;26.20;44.00;;;;;;5056172;28;19919;-59
2021/03/02 14:03:04;;;;;;;;;;;26.20;44.10;;;;;;5073233;28;19915;-59
2021/03/02 14:05:30;;;;;;;;;;;26.20;44.10;;;;;;5092055;28;19919;-58
2021/03/02 14:07:57;;;;;;;;;;;26.10;44.10;;;;;;5094002;28;19911;-59
2021/03/02 14:10:24;;;;;;;;;;;26.10;44.10;;;;;;5093147;28;20365;-59
2021/03/02 14:12:53;;;;;;;;;;;26.10;44.10;;;;;;5093865;28;19904;-59
2021/03/02 14:15:20;;;;;;;;;;;26.00;44.10;;;;;;5093867;28;19935;-58
2021/03/02 14:17:46;;;;;;;;;;;26.00;44.20;;;;;;5093736;28;19908;-57